sensor_id;sensor_type;location;lat;lon;timestamp;temperature;humidity
16863;DHT22;52193;48.216;-1.698;2023-02-24T00:02:10;12.60;99.90
16863;DHT22;52193;48.216;-1.698;2023-02-24T00:04:40;12.60;99.90
16863;DHT22;52193;48.216;-1.698;2023-02-24T00:07:10;12.60;99.90
16863;DHT22;52193;48.216;-1.698;2023-02-24T00:09:39;12.60;99.90
16863;DHT22;52193;48.216;-1.698;2023-02-24T00:12:08;12.60;99.90
16863;DHT22;52193;48.216;-1.698;2023-02-24T00:14:39;12.60;99.90
16863;DHT22;52193;48.216;-1.698;2023-02-24T00:17:07;12.60;99.90
16863;DHT22;52193;48.216;-1.698;2023-02-24T00:19:34;12.60;99.90
16863;DHT22;52193;48.216;-1.698;2023-02-24T00:22:03;12.60;99.90
16863;DHT22;52193;48.216;-1.698;2023-02-24T00:24:30;12.60;99.90
16863;DHT22;52193;48.216;-1.698;2023-02-24T00:27:00;12.70;99.90
16863;DHT22;52193;48.216;-1.698;2023-02-24T00:29:32;12.70;99.90
16863;DHT22;52193;48.216;-1.698;2023-02-24T00:32:02;12.70;99.90
16863;DHT22;52193;48.216;-1.698;2023-02-24T00:34:33;12.70;99.90
16863;DHT22;52193;48.216;-1.698;2023-02-24T00:37:01;12.70;99.90
16863;DHT22;52193;48.216;-1.698;2023-02-24T00:39:31;12.80;99.90
16863;DHT22;52193;48.216;-1.698;2023-02-24T00:42:02;12.80;99.90
16863;DHT22;52193;48.216;-1.698;2023-02-24T00:44:31;12.80;99.90
16863;DHT22;52193;48.216;-1.698;2023-02-24T00:46:59;12.80;99.90
16863;DHT22;52193;48.216;-1.698;2023-02-24T00:49:27;12.80;99.90
16863;DHT22;52193;48.216;-1.698;2023-02-24T00:51:55;12.80;99.90
16863;DHT22;52193;48.216;-1.698;2023-02-24T00:54:22;12.80;99.90
16863;DHT22;52193;48.216;-1.698;2023-02-24T00:56:53;12.80;99.90
16863;DHT22;52193;48.216;-1.698;2023-02-24T00:59:22;12.80;99.90
16863;DHT22;52193;48.216;-1.698;2023-02-24T01:01:50;12.80;99.90
16863;DHT22;52193;48.216;-1.698;2023-02-24T01:04:19;12.90;99.90
16863;DHT22;52193;48.216;-1.698;2023-02-24T01:06:47;12.90;99.90
16863;DHT22;52193;48.216;-1.698;2023-02-24T01:09:16;12.80;99.90
16863;DHT22;52193;48.216;-1.698;2023-02-24T01:11:45;12.80;99.90
16863;DHT22;52193;48.216;-1.698;2023-02-24T01:14:44;12.80;99.90
16863;DHT22;52193;48.216;-1.698;2023-02-24T01:17:12;12.80;99.90
16863;DHT22;52193;48.216;-1.698;2023-02-24T01:19:39;12.80;99.90
16863;DHT22;52193;48.216;-1.698;2023-02-24T01:22:10;12.80;99.90
16863;DHT22;52193;48.216;-1.698;2023-02-24T01:24:41;12.80;99.90
16863;DHT22;52193;48.216;-1.698;2023-02-24T01:27:09;12.90;99.90
16863;DHT22;52193;48.216;-1.698;2023-02-24T01:29:37;12.90;99.90
16863;DHT22;52193;48.216;-1.698;2023-02-24T01:32:05;12.90;99.90
16863;DHT22;52193;48.216;-1.698;2023-02-24T01:34:32;12.90;99.90
16863;DHT22;52193;48.216;-1.698;2023-02-24T01:37:00;12.90;99.90
16863;DHT22;52193;48.216;-1.698;2023-02-24T01:39:27;12.90;99.90
16863;DHT22;52193;48.216;-1.698;2023-02-24T01:41:54;12.90;99.90
16863;DHT22;52193;48.216;-1.698;2023-02-24T01:47:30;13.00;99.90
16863;DHT22;52193;48.216;-1.698;2023-02-24T01:49:57;12.90;99.90
16863;DHT22;52193;48.216;-1.698;2023-02-24T01:52:26;12.90;99.90
16863;DHT22;52193;48.216;-1.698;2023-02-24T01:54:59;12.90;99.90
16863;DHT22;52193;48.216;-1.698;2023-02-24T01:57:32;12.80;99.90
16863;DHT22;52193;48.216;-1.698;2023-02-24T02:00:06;12.80;99.90
16863;DHT22;52193;48.216;-1.698;2023-02-24T02:02:40;12.80;99.90
16863;DHT22;52193;48.216;-1.698;2023-02-24T02:05:09;12.80;99.90
16863;DHT22;52193;48.216;-1.698;2023-02-24T02:07:37;12.70;99.90
16863;DHT22;52193;48.216;-1.698;2023-02-24T02:10:07;12.70;99.90
16863;DHT22;52193;48.216;-1.698;2023-02-24T02:12:36;12.70;99.90
16863;DHT22;52193;48.216;-1.698;2023-02-24T02:15:10;12.70;99.90
16863;DHT22;52193;48.216;-1.698;2023-02-24T02:17:43;12.80;99.90
16863;DHT22;52193;48.216;-1.698;2023-02-24T02:23:51;12.80;99.90
16863;DHT22;52193;48.216;-1.698;2023-02-24T02:32:41;12.70;99.90
16863;DHT22;52193;48.216;-1.698;2023-02-24T02:35:19;12.70;99.90
16863;DHT22;52193;48.216;-1.698;2023-02-24T02:37:53;12.70;99.90
16863;DHT22;52193;48.216;-1.698;2023-02-24T02:40:27;12.70;99.90
16863;DHT22;52193;48.216;-1.698;2023-02-24T02:43:02;12.70;99.90
16863;DHT22;52193;48.216;-1.698;2023-02-24T02:45:35;12.60;99.90
16863;DHT22;52193;48.216;-1.698;2023-02-24T02:48:07;12.60;99.90
16863;DHT22;52193;48.216;-1.698;2023-02-24T02:50:40;12.60;99.90
16863;DHT22;52193;48.216;-1.698;2023-02-24T02:53:15;12.60;99.90
16863;DHT22;52193;48.216;-1.698;2023-02-24T02:55:46;12.60;99.90
16863;DHT22;52193;48.216;-1.698;2023-02-24T02:58:16;12.60;99.90
16863;DHT22;52193;48.216;-1.698;2023-02-24T03:00:48;12.60;99.90
16863;DHT22;52193;48.216;-1.698;2023-02-24T03:03:23;12.60;99.90
16863;DHT22;52193;48.216;-1.698;2023-02-24T03:05:58;12.70;99.90
16863;DHT22;52193;48.216;-1.698;2023-02-24T03:08:30;12.60;99.90
16863;DHT22;52193;48.216;-1.698;2023-02-24T03:11:00;12.60;99.90
16863;DHT22;52193;48.216;-1.698;2023-02-24T03:13:32;12.60;99.90
16863;DHT22;52193;48.216;-1.698;2023-02-24T03:16:02;12.60;99.90
16863;DHT22;52193;48.216;-1.698;2023-02-24T03:18:33;12.60;99.90
16863;DHT22;52193;48.216;-1.698;2023-02-24T03:21:06;12.60;99.90
16863;DHT22;52193;48.216;-1.698;2023-02-24T03:23:36;12.60;99.90
16863;DHT22;52193;48.216;-1.698;2023-02-24T03:26:10;12.60;99.90
16863;DHT22;52193;48.216;-1.698;2023-02-24T03:28:48;12.60;99.90
16863;DHT22;52193;48.216;-1.698;2023-02-24T03:31:23;12.60;99.90
16863;DHT22;52193;48.216;-1.698;2023-02-24T03:34:01;12.70;99.90
16863;DHT22;52193;48.216;-1.698;2023-02-24T03:36:30;12.70;99.90
16863;DHT22;52193;48.216;-1.698;2023-02-24T03:38:58;12.70;99.90
16863;DHT22;52193;48.216;-1.698;2023-02-24T03:41:30;12.70;99.90
16863;DHT22;52193;48.216;-1.698;2023-02-24T03:44:00;12.70;99.90
16863;DHT22;52193;48.216;-1.698;2023-02-24T03:46:29;12.70;99.90
16863;DHT22;52193;48.216;-1.698;2023-02-24T03:48:59;12.70;99.90
16863;DHT22;52193;48.216;-1.698;2023-02-24T03:51:30;12.70;99.90
16863;DHT22;52193;48.216;-1.698;2023-02-24T03:54:06;12.70;99.90
16863;DHT22;52193;48.216;-1.698;2023-02-24T03:56:44;12.70;99.90
16863;DHT22;52193;48.216;-1.698;2023-02-24T03:59:26;12.70;99.90
16863;DHT22;52193;48.216;-1.698;2023-02-24T04:01:59;12.80;99.90
16863;DHT22;52193;48.216;-1.698;2023-02-24T04:04:33;12.80;99.90
16863;DHT22;52193;48.216;-1.698;2023-02-24T04:07:07;12.80;99.90
16863;DHT22;52193;48.216;-1.698;2023-02-24T04:09:39;12.80;99.90
16863;DHT22;52193;48.216;-1.698;2023-02-24T04:12:15;12.80;99.90
16863;DHT22;52193;48.216;-1.698;2023-02-24T04:14:49;12.80;99.90
16863;DHT22;52193;48.216;-1.698;2023-02-24T04:17:21;12.80;99.90
16863;DHT22;52193;48.216;-1.698;2023-02-24T04:19:51;12.80;99.90
16863;DHT22;52193;48.216;-1.698;2023-02-24T04:22:21;12.80;99.90
16863;DHT22;52193;48.216;-1.698;2023-02-24T04:24:51;12.90;99.90
16863;DHT22;52193;48.216;-1.698;2023-02-24T04:27:21;12.80;99.90
16863;DHT22;52193;48.216;-1.698;2023-02-24T04:29:52;12.80;99.90
16863;DHT22;52193;48.216;-1.698;2023-02-24T04:32:24;12.80;99.90
16863;DHT22;52193;48.216;-1.698;2023-02-24T04:34:52;12.80;99.90
16863;DHT22;52193;48.216;-1.698;2023-02-24T04:37:20;12.80;99.90
16863;DHT22;52193;48.216;-1.698;2023-02-24T04:39:48;12.70;99.90
16863;DHT22;52193;48.216;-1.698;2023-02-24T04:42:16;12.70;99.90
16863;DHT22;52193;48.216;-1.698;2023-02-24T04:44:44;12.80;99.90
16863;DHT22;52193;48.216;-1.698;2023-02-24T04:47:12;12.80;99.90
16863;DHT22;52193;48.216;-1.698;2023-02-24T04:49:39;12.80;99.90
16863;DHT22;52193;48.216;-1.698;2023-02-24T04:52:07;12.80;99.90
16863;DHT22;52193;48.216;-1.698;2023-02-24T04:54:37;12.80;99.90
16863;DHT22;52193;48.216;-1.698;2023-02-24T04:57:04;12.80;99.90
16863;DHT22;52193;48.216;-1.698;2023-02-24T04:59:32;12.80;99.90
16863;DHT22;52193;48.216;-1.698;2023-02-24T05:01:59;12.80;99.90
16863;DHT22;52193;48.216;-1.698;2023-02-24T05:04:27;12.80;99.90
16863;DHT22;52193;48.216;-1.698;2023-02-24T05:06:56;12.80;99.90
16863;DHT22;52193;48.216;-1.698;2023-02-24T05:09:23;12.80;99.90
16863;DHT22;52193;48.216;-1.698;2023-02-24T05:11:56;12.80;99.90
16863;DHT22;52193;48.216;-1.698;2023-02-24T05:14:23;12.80;99.90
16863;DHT22;52193;48.216;-1.698;2023-02-24T05:16:51;12.80;99.90
16863;DHT22;52193;48.216;-1.698;2023-02-24T05:19:24;12.80;99.90
16863;DHT22;52193;48.216;-1.698;2023-02-24T05:22:09;12.80;99.90
16863;DHT22;52193;48.216;-1.698;2023-02-24T05:24:39;12.80;99.90
16863;DHT22;52193;48.216;-1.698;2023-02-24T05:27:08;12.80;99.90
16863;DHT22;52193;48.216;-1.698;2023-02-24T05:29:36;12.80;99.90
16863;DHT22;52193;48.216;-1.698;2023-02-24T05:32:05;12.70;99.90
16863;DHT22;52193;48.216;-1.698;2023-02-24T05:34:33;12.70;99.90
16863;DHT22;52193;48.216;-1.698;2023-02-24T05:37:01;12.70;99.90
16863;DHT22;52193;48.216;-1.698;2023-02-24T05:39:35;12.70;99.90
16863;DHT22;52193;48.216;-1.698;2023-02-24T05:42:03;12.70;99.90
16863;DHT22;52193;48.216;-1.698;2023-02-24T05:44:34;12.70;99.90
16863;DHT22;52193;48.216;-1.698;2023-02-24T05:47:01;12.80;99.90
16863;DHT22;52193;48.216;-1.698;2023-02-24T05:49:32;12.70;99.90
16863;DHT22;52193;48.216;-1.698;2023-02-24T05:52:03;12.70;99.90
16863;DHT22;52193;48.216;-1.698;2023-02-24T05:54:33;12.80;99.90
16863;DHT22;52193;48.216;-1.698;2023-02-24T05:57:03;12.70;99.90
16863;DHT22;52193;48.216;-1.698;2023-02-24T05:59:30;12.70;99.90
16863;DHT22;52193;48.216;-1.698;2023-02-24T06:02:00;12.70;99.90
16863;DHT22;52193;48.216;-1.698;2023-02-24T06:04:31;12.70;99.90
16863;DHT22;52193;48.216;-1.698;2023-02-24T06:07:16;12.70;99.90
16863;DHT22;52193;48.216;-1.698;2023-02-24T06:09:44;12.60;99.90
16863;DHT22;52193;48.216;-1.698;2023-02-24T06:12:15;12.60;99.90
16863;DHT22;52193;48.216;-1.698;2023-02-24T06:14:42;12.70;99.90
16863;DHT22;52193;48.216;-1.698;2023-02-24T06:17:12;12.60;99.90
16863;DHT22;52193;48.216;-1.698;2023-02-24T06:19:41;12.50;99.90
16863;DHT22;52193;48.216;-1.698;2023-02-24T06:22:11;12.50;99.90
16863;DHT22;52193;48.216;-1.698;2023-02-24T06:24:39;12.40;99.90
16863;DHT22;52193;48.216;-1.698;2023-02-24T06:27:09;12.40;99.90
16863;DHT22;52193;48.216;-1.698;2023-02-24T06:29:42;12.30;99.90
16863;DHT22;52193;48.216;-1.698;2023-02-24T06:32:11;12.30;99.90
16863;DHT22;52193;48.216;-1.698;2023-02-24T06:34:39;12.30;99.90
16863;DHT22;52193;48.216;-1.698;2023-02-24T06:37:08;12.30;99.90
16863;DHT22;52193;48.216;-1.698;2023-02-24T06:39:36;12.30;99.90
16863;DHT22;52193;48.216;-1.698;2023-02-24T06:42:04;12.30;99.90
16863;DHT22;52193;48.216;-1.698;2023-02-24T06:44:34;12.30;99.90
16863;DHT22;52193;48.216;-1.698;2023-02-24T06:47:03;12.30;99.90
16863;DHT22;52193;48.216;-1.698;2023-02-24T06:49:32;12.20;99.90
16863;DHT22;52193;48.216;-1.698;2023-02-24T06:51:59;12.20;99.90
16863;DHT22;52193;48.216;-1.698;2023-02-24T06:54:26;12.20;99.90
16863;DHT22;52193;48.216;-1.698;2023-02-24T06:56:55;12.20;99.90
16863;DHT22;52193;48.216;-1.698;2023-02-24T06:59:22;12.20;99.90
16863;DHT22;52193;48.216;-1.698;2023-02-24T07:01:53;12.20;99.90
16863;DHT22;52193;48.216;-1.698;2023-02-24T07:04:21;12.20;99.90
16863;DHT22;52193;48.216;-1.698;2023-02-24T07:06:52;12.20;99.90
16863;DHT22;52193;48.216;-1.698;2023-02-24T07:09:22;12.20;99.90
16863;DHT22;52193;48.216;-1.698;2023-02-24T07:11:51;12.20;99.90
16863;DHT22;52193;48.216;-1.698;2023-02-24T07:14:19;12.20;99.90
16863;DHT22;52193;48.216;-1.698;2023-02-24T07:16:47;12.30;99.90
16863;DHT22;52193;48.216;-1.698;2023-02-24T07:19:20;12.20;99.90
16863;DHT22;52193;48.216;-1.698;2023-02-24T07:21:47;12.20;99.90
16863;DHT22;52193;48.216;-1.698;2023-02-24T07:24:20;12.10;99.90
16863;DHT22;52193;48.216;-1.698;2023-02-24T07:26:58;12.10;99.90
16863;DHT22;52193;48.216;-1.698;2023-02-24T07:29:26;12.10;99.90
16863;DHT22;52193;48.216;-1.698;2023-02-24T07:31:54;12.00;99.90
16863;DHT22;52193;48.216;-1.698;2023-02-24T07:34:24;12.00;99.90
16863;DHT22;52193;48.216;-1.698;2023-02-24T07:36:52;12.00;99.90
16863;DHT22;52193;48.216;-1.698;2023-02-24T07:39:22;11.90;99.90
16863;DHT22;52193;48.216;-1.698;2023-02-24T07:41:49;11.90;99.90
16863;DHT22;52193;48.216;-1.698;2023-02-24T07:44:18;11.90;99.90
16863;DHT22;52193;48.216;-1.698;2023-02-24T07:46:46;11.90;99.90
16863;DHT22;52193;48.216;-1.698;2023-02-24T07:49:16;11.90;99.90
16863;DHT22;52193;48.216;-1.698;2023-02-24T07:51:44;11.90;99.90
16863;DHT22;52193;48.216;-1.698;2023-02-24T07:54:17;12.00;99.90
16863;DHT22;52193;48.216;-1.698;2023-02-24T07:56:47;11.90;99.90
16863;DHT22;52193;48.216;-1.698;2023-02-24T07:59:22;11.90;99.90
16863;DHT22;52193;48.216;-1.698;2023-02-24T08:01:49;11.90;99.90
16863;DHT22;52193;48.216;-1.698;2023-02-24T08:04:18;11.90;99.90
16863;DHT22;52193;48.216;-1.698;2023-02-24T08:06:48;11.90;99.90
16863;DHT22;52193;48.216;-1.698;2023-02-24T08:09:22;11.80;99.90
16863;DHT22;52193;48.216;-1.698;2023-02-24T08:12:13;11.90;99.90
16863;DHT22;52193;48.216;-1.698;2023-02-24T08:14:43;11.80;99.90
16863;DHT22;52193;48.216;-1.698;2023-02-24T08:17:16;11.80;99.90
16863;DHT22;52193;48.216;-1.698;2023-02-24T08:19:45;11.80;99.90
16863;DHT22;52193;48.216;-1.698;2023-02-24T08:22:13;11.90;99.90
16863;DHT22;52193;48.216;-1.698;2023-02-24T08:24:52;11.90;99.90
16863;DHT22;52193;48.216;-1.698;2023-02-24T08:27:23;11.80;99.90
16863;DHT22;52193;48.216;-1.698;2023-02-24T08:29:52;11.80;99.90
16863;DHT22;52193;48.216;-1.698;2023-02-24T08:32:27;11.80;99.90
16863;DHT22;52193;48.216;-1.698;2023-02-24T08:34:58;11.90;99.90
16863;DHT22;52193;48.216;-1.698;2023-02-24T08:37:28;11.90;99.90
16863;DHT22;52193;48.216;-1.698;2023-02-24T08:40:06;11.90;99.90
16863;DHT22;52193;48.216;-1.698;2023-02-24T08:42:35;11.90;99.90
16863;DHT22;52193;48.216;-1.698;2023-02-24T08:45:02;11.90;99.90
16863;DHT22;52193;48.216;-1.698;2023-02-24T08:47:29;12.00;99.90
16863;DHT22;52193;48.216;-1.698;2023-02-24T08:50:00;12.00;99.90
16863;DHT22;52193;48.216;-1.698;2023-02-24T08:52:31;12.10;99.90
16863;DHT22;52193;48.216;-1.698;2023-02-24T08:55:00;12.10;99.90
16863;DHT22;52193;48.216;-1.698;2023-02-24T08:57:27;12.10;99.90
16863;DHT22;52193;48.216;-1.698;2023-02-24T08:59:55;12.10;99.90
16863;DHT22;52193;48.216;-1.698;2023-02-24T09:02:24;12.10;99.90
16863;DHT22;52193;48.216;-1.698;2023-02-24T09:04:55;12.10;99.90
16863;DHT22;52193;48.216;-1.698;2023-02-24T09:07:23;12.20;99.90
16863;DHT22;52193;48.216;-1.698;2023-02-24T09:09:51;12.20;99.90
16863;DHT22;52193;48.216;-1.698;2023-02-24T09:12:22;12.20;99.90
16863;DHT22;52193;48.216;-1.698;2023-02-24T09:14:51;12.30;99.90
16863;DHT22;52193;48.216;-1.698;2023-02-24T09:17:24;12.30;99.90
16863;DHT22;52193;48.216;-1.698;2023-02-24T09:20:07;12.30;99.90
16863;DHT22;52193;48.216;-1.698;2023-02-24T09:23:21;12.40;99.90
16863;DHT22;52193;48.216;-1.698;2023-02-24T09:25:54;12.50;99.90
16863;DHT22;52193;48.216;-1.698;2023-02-24T09:28:22;12.50;99.90
16863;DHT22;52193;48.216;-1.698;2023-02-24T09:30:51;12.50;99.90
16863;DHT22;52193;48.216;-1.698;2023-02-24T09:33:24;12.60;99.90
16863;DHT22;52193;48.216;-1.698;2023-02-24T09:35:55;12.60;99.90
16863;DHT22;52193;48.216;-1.698;2023-02-24T09:38:40;12.70;99.90
16863;DHT22;52193;48.216;-1.698;2023-02-24T09:41:30;12.80;99.90
16863;DHT22;52193;48.216;-1.698;2023-02-24T09:44:03;12.90;99.90
16863;DHT22;52193;48.216;-1.698;2023-02-24T09:46:37;13.00;99.90
16863;DHT22;52193;48.216;-1.698;2023-02-24T09:49:13;13.10;99.90
16863;DHT22;52193;48.216;-1.698;2023-02-24T09:51:42;13.20;99.90
16863;DHT22;52193;48.216;-1.698;2023-02-24T09:54:15;13.40;99.90
16863;DHT22;52193;48.216;-1.698;2023-02-24T09:56:49;13.50;99.90
16863;DHT22;52193;48.216;-1.698;2023-02-24T09:59:28;13.50;99.90
16863;DHT22;52193;48.216;-1.698;2023-02-24T10:02:12;13.50;99.90
16863;DHT22;52193;48.216;-1.698;2023-02-24T10:04:54;13.50;99.90
16863;DHT22;52193;48.216;-1.698;2023-02-24T10:07:34;13.60;99.90
16863;DHT22;52193;48.216;-1.698;2023-02-24T10:10:10;13.80;99.90
16863;DHT22;52193;48.216;-1.698;2023-02-24T10:12:57;13.70;99.90
16863;DHT22;52193;48.216;-1.698;2023-02-24T10:15:29;13.70;99.90
16863;DHT22;52193;48.216;-1.698;2023-02-24T10:21:47;13.80;99.90
16863;DHT22;52193;48.216;-1.698;2023-02-24T10:24:47;13.90;99.90
16863;DHT22;52193;48.216;-1.698;2023-02-24T10:27:20;13.90;99.90
16863;DHT22;52193;48.216;-1.698;2023-02-24T10:29:55;13.90;99.90
16863;DHT22;52193;48.216;-1.698;2023-02-24T10:32:34;14.00;99.90
16863;DHT22;52193;48.216;-1.698;2023-02-24T10:35:04;14.10;99.90
16863;DHT22;52193;48.216;-1.698;2023-02-24T10:37:33;14.20;99.80
16863;DHT22;52193;48.216;-1.698;2023-02-24T10:40:02;14.30;99.80
16863;DHT22;52193;48.216;-1.698;2023-02-24T10:42:36;14.50;99.80
16863;DHT22;52193;48.216;-1.698;2023-02-24T10:45:13;14.60;99.70
16863;DHT22;52193;48.216;-1.698;2023-02-24T10:47:42;14.60;99.70
16863;DHT22;52193;48.216;-1.698;2023-02-24T10:50:20;14.70;99.50
16863;DHT22;52193;48.216;-1.698;2023-02-24T10:52:52;14.70;99.40
16863;DHT22;52193;48.216;-1.698;2023-02-24T10:55:37;14.70;99.30
16863;DHT22;52193;48.216;-1.698;2023-02-24T10:58:21;14.70;99.30
16863;DHT22;52193;48.216;-1.698;2023-02-24T11:01:10;14.90;99.20
16863;DHT22;52193;48.216;-1.698;2023-02-24T11:03:48;14.90;99.10
16863;DHT22;52193;48.216;-1.698;2023-02-24T11:06:27;14.90;99.10
16863;DHT22;52193;48.216;-1.698;2023-02-24T11:09:18;14.90;98.90
16863;DHT22;52193;48.216;-1.698;2023-02-24T11:11:59;14.90;98.80
16863;DHT22;52193;48.216;-1.698;2023-02-24T11:14:50;14.90;98.70
16863;DHT22;52193;48.216;-1.698;2023-02-24T11:17:36;15.00;98.50
16863;DHT22;52193;48.216;-1.698;2023-02-24T11:20:10;15.00;98.50
16863;DHT22;52193;48.216;-1.698;2023-02-24T11:22:42;15.00;98.40
16863;DHT22;52193;48.216;-1.698;2023-02-24T11:25:18;15.10;98.40
16863;DHT22;52193;48.216;-1.698;2023-02-24T11:27:47;15.00;98.10
16863;DHT22;52193;48.216;-1.698;2023-02-24T11:30:22;15.10;98.10
16863;DHT22;52193;48.216;-1.698;2023-02-24T11:35:55;15.20;98.00
16863;DHT22;52193;48.216;-1.698;2023-02-24T11:38:30;15.20;97.90
16863;DHT22;52193;48.216;-1.698;2023-02-24T11:41:06;15.20;97.80
16863;DHT22;52193;48.216;-1.698;2023-02-24T11:43:37;15.20;97.70
16863;DHT22;52193;48.216;-1.698;2023-02-24T11:46:10;15.20;97.70
16863;DHT22;52193;48.216;-1.698;2023-02-24T11:48:39;15.30;97.60
16863;DHT22;52193;48.216;-1.698;2023-02-24T11:51:12;15.30;97.40
16863;DHT22;52193;48.216;-1.698;2023-02-24T11:53:44;15.30;97.40
16863;DHT22;52193;48.216;-1.698;2023-02-24T11:56:18;15.40;97.50
16863;DHT22;52193;48.216;-1.698;2023-02-24T11:58:51;15.60;97.50
16863;DHT22;52193;48.216;-1.698;2023-02-24T12:01:24;15.60;97.40
16863;DHT22;52193;48.216;-1.698;2023-02-24T12:04:00;15.70;97.40
16863;DHT22;52193;48.216;-1.698;2023-02-24T12:06:34;15.80;97.30
16863;DHT22;52193;48.216;-1.698;2023-02-24T12:09:09;15.80;97.10
16863;DHT22;52193;48.216;-1.698;2023-02-24T12:11:44;15.80;97.20
16863;DHT22;52193;48.216;-1.698;2023-02-24T12:14:20;15.90;97.00
16863;DHT22;52193;48.216;-1.698;2023-02-24T12:16:55;15.90;97.00
16863;DHT22;52193;48.216;-1.698;2023-02-24T12:19:30;16.00;96.90
16863;DHT22;52193;48.216;-1.698;2023-02-24T12:22:02;16.00;96.90
16863;DHT22;52193;48.216;-1.698;2023-02-24T12:24:34;16.00;96.90
16863;DHT22;52193;48.216;-1.698;2023-02-24T12:27:12;16.10;96.80
16863;DHT22;52193;48.216;-1.698;2023-02-24T12:29:52;16.10;96.80
16863;DHT22;52193;48.216;-1.698;2023-02-24T12:32:28;16.20;96.70
16863;DHT22;52193;48.216;-1.698;2023-02-24T12:35:03;16.20;96.60
16863;DHT22;52193;48.216;-1.698;2023-02-24T12:37:49;16.30;96.50
16863;DHT22;52193;48.216;-1.698;2023-02-24T12:40:28;16.30;96.50
16863;DHT22;52193;48.216;-1.698;2023-02-24T12:43:07;16.40;96.40
16863;DHT22;52193;48.216;-1.698;2023-02-24T12:45:44;16.50;96.40
16863;DHT22;52193;48.216;-1.698;2023-02-24T12:51:07;16.60;96.20
16863;DHT22;52193;48.216;-1.698;2023-02-24T12:53:41;16.60;96.20
16863;DHT22;52193;48.216;-1.698;2023-02-24T12:56:14;16.70;96.00
16863;DHT22;52193;48.216;-1.698;2023-02-24T12:58:48;16.80;95.90
16863;DHT22;52193;48.216;-1.698;2023-02-24T13:01:21;16.90;95.90
16863;DHT22;52193;48.216;-1.698;2023-02-24T13:04:14;17.00;95.70
16863;DHT22;52193;48.216;-1.698;2023-02-24T13:06:55;17.00;95.60
16863;DHT22;52193;48.216;-1.698;2023-02-24T13:09:30;17.10;95.40
16863;DHT22;52193;48.216;-1.698;2023-02-24T13:12:04;17.10;95.10
16863;DHT22;52193;48.216;-1.698;2023-02-24T13:14:37;17.10;95.20
16863;DHT22;52193;48.216;-1.698;2023-02-24T13:17:15;17.10;94.80
16863;DHT22;52193;48.216;-1.698;2023-02-24T13:19:45;17.30;94.80
16863;DHT22;52193;48.216;-1.698;2023-02-24T13:22:27;17.40;94.70
16863;DHT22;52193;48.216;-1.698;2023-02-24T13:24:58;17.50;94.70
16863;DHT22;52193;48.216;-1.698;2023-02-24T13:27:27;17.60;94.60
16863;DHT22;52193;48.216;-1.698;2023-02-24T13:29:57;17.60;94.60
16863;DHT22;52193;48.216;-1.698;2023-02-24T13:32:30;17.70;94.60
16863;DHT22;52193;48.216;-1.698;2023-02-24T13:34:59;17.80;94.50
16863;DHT22;52193;48.216;-1.698;2023-02-24T13:37:29;17.90;94.50
16863;DHT22;52193;48.216;-1.698;2023-02-24T13:39:56;18.10;94.40
16863;DHT22;52193;48.216;-1.698;2023-02-24T13:42:25;18.10;94.30
16863;DHT22;52193;48.216;-1.698;2023-02-24T13:45:00;18.20;94.30
16863;DHT22;52193;48.216;-1.698;2023-02-24T13:50:32;18.40;94.10
16863;DHT22;52193;48.216;-1.698;2023-02-24T13:53:24;18.50;93.90
16863;DHT22;52193;48.216;-1.698;2023-02-24T13:56:17;18.70;93.80
16863;DHT22;52193;48.216;-1.698;2023-02-24T13:59:01;18.90;93.70
16863;DHT22;52193;48.216;-1.698;2023-02-24T14:01:42;19.00;93.30
16863;DHT22;52193;48.216;-1.698;2023-02-24T14:04:15;19.10;93.20
16863;DHT22;52193;48.216;-1.698;2023-02-24T14:06:46;19.40;93.10
16863;DHT22;52193;48.216;-1.698;2023-02-24T14:09:16;19.60;92.80
16863;DHT22;52193;48.216;-1.698;2023-02-24T14:11:50;19.90;92.50
16863;DHT22;52193;48.216;-1.698;2023-02-24T14:14:18;20.00;92.20
16863;DHT22;52193;48.216;-1.698;2023-02-24T14:16:48;20.00;92.10
16863;DHT22;52193;48.216;-1.698;2023-02-24T14:19:17;20.40;92.00
16863;DHT22;52193;48.216;-1.698;2023-02-24T14:21:50;20.50;91.50
16863;DHT22;52193;48.216;-1.698;2023-02-24T14:24:18;20.80;91.20
16863;DHT22;52193;48.216;-1.698;2023-02-24T14:26:47;21.00;90.80
16863;DHT22;52193;48.216;-1.698;2023-02-24T14:29:18;21.40;90.40
16863;DHT22;52193;48.216;-1.698;2023-02-24T14:31:47;22.10;89.70
16863;DHT22;52193;48.216;-1.698;2023-02-24T14:34:19;22.90;88.10
16863;DHT22;52193;48.216;-1.698;2023-02-24T14:36:48;24.10;86.30
16863;DHT22;52193;48.216;-1.698;2023-02-24T14:39:18;25.30;84.40
16863;DHT22;52193;48.216;-1.698;2023-02-24T14:41:46;26.10;82.00
16863;DHT22;52193;48.216;-1.698;2023-02-24T14:44:18;27.10;79.90
16863;DHT22;52193;48.216;-1.698;2023-02-24T14:46:46;27.90;77.90
16863;DHT22;52193;48.216;-1.698;2023-02-24T14:49:22;28.50;76.50
16863;DHT22;52193;48.216;-1.698;2023-02-24T14:51:54;29.50;74.60
16863;DHT22;52193;48.216;-1.698;2023-02-24T14:54:32;30.40;73.10
16863;DHT22;52193;48.216;-1.698;2023-02-24T14:57:01;31.10;71.50
16863;DHT22;52193;48.216;-1.698;2023-02-24T14:59:31;32.00;69.90
16863;DHT22;52193;48.216;-1.698;2023-02-24T15:02:00;32.70;68.30
16863;DHT22;52193;48.216;-1.698;2023-02-24T15:04:35;33.40;66.70
16863;DHT22;52193;48.216;-1.698;2023-02-24T15:07:11;33.70;65.00
16863;DHT22;52193;48.216;-1.698;2023-02-24T15:09:43;34.40;64.00
16863;DHT22;52193;48.216;-1.698;2023-02-24T15:12:19;34.90;62.60
16863;DHT22;52193;48.216;-1.698;2023-02-24T15:14:50;35.20;61.40
16863;DHT22;52193;48.216;-1.698;2023-02-24T15:17:19;35.70;60.30
16863;DHT22;52193;48.216;-1.698;2023-02-24T15:19:48;36.50;59.40
16863;DHT22;52193;48.216;-1.698;2023-02-24T15:22:22;37.00;58.40
16863;DHT22;52193;48.216;-1.698;2023-02-24T15:24:50;37.50;57.40
16863;DHT22;52193;48.216;-1.698;2023-02-24T15:27:21;37.80;56.60
16863;DHT22;52193;48.216;-1.698;2023-02-24T15:30:00;38.10;55.80
16863;DHT22;52193;48.216;-1.698;2023-02-24T15:32:31;38.10;54.80
16863;DHT22;52193;48.216;-1.698;2023-02-24T15:35:00;38.20;54.80
16863;DHT22;52193;48.216;-1.698;2023-02-24T15:37:32;38.40;54.40
16863;DHT22;52193;48.216;-1.698;2023-02-24T15:40:10;38.60;54.00
16863;DHT22;52193;48.216;-1.698;2023-02-24T15:42:48;38.20;53.30
16863;DHT22;52193;48.216;-1.698;2023-02-24T15:45:24;38.10;52.60
16863;DHT22;52193;48.216;-1.698;2023-02-24T15:47:53;38.10;52.40
16863;DHT22;52193;48.216;-1.698;2023-02-24T15:50:22;37.90;52.30
16863;DHT22;52193;48.216;-1.698;2023-02-24T15:52:49;37.80;52.40
16863;DHT22;52193;48.216;-1.698;2023-02-24T15:55:17;37.60;52.10
16863;DHT22;52193;48.216;-1.698;2023-02-24T15:57:45;37.50;52.00
16863;DHT22;52193;48.216;-1.698;2023-02-24T16:00:15;37.30;51.50
16863;DHT22;52193;48.216;-1.698;2023-02-24T16:02:43;36.90;51.30
16863;DHT22;52193;48.216;-1.698;2023-02-24T16:05:13;36.60;51.20
16863;DHT22;52193;48.216;-1.698;2023-02-24T16:07:43;36.30;51.00
16863;DHT22;52193;48.216;-1.698;2023-02-24T16:10:19;36.20;50.90
16863;DHT22;52193;48.216;-1.698;2023-02-24T16:12:49;35.80;50.80